createdAt,value
2022-10-05T00:00:30.760Z,0.00
2022-10-05T00:01:31.025Z,0.00
2022-10-05T00:02:31.272Z,0.00
2022-10-05T00:03:31.517Z,0.00
2022-10-05T00:04:31.754Z,0.00
2022-10-05T00:05:32.078Z,0.00
2022-10-05T00:06:32.324Z,0.00
2022-10-05T00:07:32.573Z,0.00
2022-10-05T00:08:32.812Z,0.00
2022-10-05T00:09:33.043Z,0.00
2022-10-05T00:10:33.296Z,0.00
2022-10-05T00:11:33.593Z,0.00
2022-10-05T00:12:33.837Z,0.00
2022-10-05T00:13:34.074Z,0.00
2022-10-05T00:14:34.314Z,0.00
2022-10-05T00:15:34.565Z,0.00
2022-10-05T00:16:34.864Z,0.00
2022-10-05T00:17:35.100Z,0.00
2022-10-05T00:18:35.336Z,0.00
2022-10-05T00:19:35.580Z,0.00
2022-10-05T00:20:35.825Z,0.00
2022-10-05T00:21:36.067Z,0.00
2022-10-05T00:22:36.309Z,0.00
2022-10-05T00:23:36.548Z,0.00
2022-10-05T00:24:36.789Z,0.00
2022-10-05T00:25:37.039Z,0.00
2022-10-05T00:26:37.328Z,0.00
2022-10-05T00:27:37.561Z,0.00
2022-10-05T00:28:37.853Z,0.00
2022-10-05T00:29:38.069Z,0.00
2022-10-05T00:30:38.330Z,0.00
2022-10-05T00:31:38.625Z,0.00
2022-10-05T00:32:38.861Z,0.00
2022-10-05T00:33:39.101Z,0.00
2022-10-05T00:34:39.341Z,0.00
2022-10-05T00:35:39.589Z,0.00
2022-10-05T00:36:39.830Z,0.00
2022-10-05T00:37:40.063Z,0.00
2022-10-05T00:38:40.302Z,0.00
2022-10-05T00:39:40.542Z,0.00
2022-10-05T00:40:40.796Z,0.00
2022-10-05T00:41:41.023Z,0.00
2022-10-05T00:42:41.267Z,0.00
2022-10-05T00:43:41.505Z,0.00
2022-10-05T00:44:41.745Z,0.00
2022-10-05T00:45:42.036Z,0.00
2022-10-05T00:46:42.356Z,0.00
2022-10-05T00:47:42.522Z,0.00
2022-10-05T00:48:42.757Z,0.00
2022-10-05T00:49:43.002Z,0.00
2022-10-05T00:50:43.278Z,0.00
2022-10-05T00:51:43.506Z,0.00
2022-10-05T00:52:43.756Z,0.00
2022-10-05T00:53:43.996Z,0.00
2022-10-05T00:54:44.236Z,0.00
2022-10-05T00:55:44.477Z,0.00
2022-10-05T00:56:44.957Z,0.00
2022-10-05T00:57:45.048Z,0.00
2022-10-05T00:58:45.288Z,0.00
2022-10-05T00:59:45.518Z,0.00
2022-10-05T01:00:45.821Z,0.00
2022-10-05T01:01:46.069Z,0.00
2022-10-05T01:02:46.361Z,0.00
2022-10-05T01:03:46.579Z,0.00
2022-10-05T01:04:46.820Z,0.00
2022-10-05T01:05:47.070Z,0.00
2022-10-05T01:06:47.715Z,0.00
2022-10-05T01:07:47.572Z,0.00
2022-10-05T01:08:47.811Z,0.00
2022-10-05T01:09:48.047Z,0.00
2022-10-05T01:10:48.292Z,0.00
2022-10-05T01:11:48.522Z,0.00
2022-10-05T01:12:48.762Z,0.00
2022-10-05T01:13:49.002Z,0.00
2022-10-05T01:14:49.242Z,0.00
2022-10-05T01:15:49.483Z,0.00
2022-10-05T01:16:50.354Z,0.00
2022-10-05T01:17:49.991Z,0.00
2022-10-05T01:18:50.223Z,0.00
2022-10-05T01:19:50.465Z,0.00
2022-10-05T01:20:50.715Z,0.00
2022-10-05T01:21:50.955Z,0.00
2022-10-05T01:22:51.195Z,0.00
2022-10-05T01:23:51.436Z,0.00
2022-10-05T01:24:51.677Z,0.00
2022-10-05T01:25:51.916Z,0.00
2022-10-05T01:26:52.175Z,0.00
2022-10-05T01:27:52.470Z,0.00
2022-10-05T01:28:52.690Z,0.00
2022-10-05T01:29:52.929Z,0.00
2022-10-05T01:30:53.168Z,0.00
2022-10-05T01:31:53.438Z,0.00
2022-10-05T01:32:53.679Z,0.00
2022-10-05T01:33:53.949Z,0.00
2022-10-05T01:34:54.189Z,0.00
2022-10-05T01:35:54.419Z,0.00
2022-10-05T01:36:54.671Z,0.00
2022-10-05T01:37:54.909Z,0.00
2022-10-05T01:38:55.148Z,0.00
2022-10-05T01:39:55.388Z,0.00
2022-10-05T01:40:55.631Z,0.00
2022-10-05T01:41:55.863Z,0.00
2022-10-05T01:42:56.109Z,0.00
2022-10-05T01:43:56.432Z,0.00
2022-10-05T01:44:56.632Z,0.00
2022-10-05T01:45:56.929Z,0.00
2022-10-05T01:46:57.152Z,0.00
2022-10-05T01:47:57.393Z,0.00
2022-10-05T01:48:57.623Z,0.00
2022-10-05T01:49:57.873Z,0.00
2022-10-05T01:50:58.113Z,0.00
2022-10-05T01:51:58.354Z,0.00
2022-10-05T01:52:58.594Z,0.00
2022-10-05T01:53:58.834Z,0.00
2022-10-05T01:54:59.074Z,0.00
2022-10-05T01:55:59.315Z,0.00
2022-10-05T01:56:59.561Z,0.00
2022-10-05T01:57:59.796Z,0.00
2022-10-05T01:59:00.035Z,0.00
2022-10-05T02:00:00.281Z,0.00
2022-10-05T02:01:01.993Z,0.00
2022-10-05T02:02:00.860Z,0.00
2022-10-05T02:03:01.087Z,0.00
2022-10-05T02:04:01.317Z,0.00
2022-10-05T02:05:02.846Z,0.00
2022-10-05T02:06:01.828Z,0.00
2022-10-05T02:07:02.079Z,0.00
2022-10-05T02:08:02.321Z,0.00
2022-10-05T02:09:02.579Z,0.00
2022-10-05T02:10:02.809Z,0.00
2022-10-05T02:11:03.089Z,0.00
2022-10-05T02:12:03.329Z,0.00
2022-10-05T02:13:03.577Z,0.00
2022-10-05T02:14:03.810Z,0.00
2022-10-05T02:15:04.091Z,0.00
2022-10-05T02:16:05.230Z,0.00
2022-10-05T02:17:04.662Z,0.00
2022-10-05T02:18:04.902Z,0.00
2022-10-05T02:19:05.141Z,0.00
2022-10-05T02:20:05.384Z,0.00
2022-10-05T02:21:05.633Z,0.00
2022-10-05T02:22:05.873Z,0.00
2022-10-05T02:23:06.121Z,0.00
2022-10-05T02:24:06.355Z,0.00
2022-10-05T02:25:06.594Z,0.00
2022-10-05T02:26:07.744Z,0.00
2022-10-05T02:27:07.164Z,0.00
2022-10-05T02:28:07.465Z,0.00
2022-10-05T02:29:07.744Z,0.00
2022-10-05T02:30:10.507Z,0.00
2022-10-05T02:31:09.304Z,0.00
2022-10-05T02:32:08.497Z,0.00
2022-10-05T02:33:08.737Z,0.00
2022-10-05T02:34:08.977Z,0.00
2022-10-05T02:35:09.217Z,0.00
2022-10-05T02:36:09.484Z,0.00
2022-10-05T02:37:09.717Z,0.00
2022-10-05T02:38:09.957Z,0.00
2022-10-05T02:39:10.195Z,0.00
2022-10-05T02:40:10.431Z,0.00
2022-10-05T02:41:11.489Z,0.00
2022-10-05T02:42:10.915Z,0.00
2022-10-05T02:43:11.151Z,0.00
2022-10-05T02:44:11.388Z,0.00
2022-10-05T02:45:11.619Z,0.00
2022-10-05T02:46:12.797Z,0.00
2022-10-05T02:47:12.200Z,0.00
2022-10-05T02:48:12.439Z,0.00
2022-10-05T02:49:12.678Z,0.00
2022-10-05T02:50:12.919Z,0.00
2022-10-05T02:51:13.161Z,0.00
2022-10-05T02:52:13.402Z,0.00
2022-10-05T02:53:13.642Z,0.00
2022-10-05T02:54:13.882Z,0.00
2022-10-05T02:55:14.113Z,0.00
2022-10-05T02:56:15.133Z,0.00
2022-10-05T02:57:14.683Z,0.00
2022-10-05T02:58:14.924Z,0.00
2022-10-05T02:59:15.164Z,0.00
2022-10-05T03:00:15.405Z,0.00
2022-10-05T03:01:16.531Z,0.00
2022-10-05T03:02:16.067Z,0.00
2022-10-05T03:03:16.307Z,0.00
2022-10-05T03:04:16.545Z,0.00
2022-10-05T03:05:16.775Z,0.00
2022-10-05T03:06:17.063Z,0.00
2022-10-05T03:07:17.287Z,0.00
2022-10-05T03:08:17.527Z,0.00
2022-10-05T03:09:17.771Z,0.00
2022-10-05T03:10:18.007Z,0.00
2022-10-05T03:11:19.070Z,0.00
2022-10-05T03:12:18.497Z,0.00
2022-10-05T03:13:18.729Z,0.00
2022-10-05T03:14:18.970Z,0.00
2022-10-05T03:15:19.219Z,0.00
2022-10-05T03:16:20.310Z,0.00
2022-10-05T03:17:19.775Z,0.00
2022-10-05T03:18:20.050Z,0.00
2022-10-05T03:19:20.280Z,0.00
2022-10-05T03:20:20.529Z,0.00
2022-10-05T03:21:20.771Z,0.00
2022-10-05T03:22:21.011Z,0.00
2022-10-05T03:23:21.241Z,0.00
2022-10-05T03:24:21.482Z,0.00
2022-10-05T03:25:21.721Z,0.00
2022-10-05T03:26:22.780Z,0.00
2022-10-05T03:27:22.193Z,0.00
2022-10-05T03:28:22.462Z,0.00
2022-10-05T03:29:22.693Z,0.00
2022-10-05T03:30:22.931Z,0.00
2022-10-05T03:31:24.031Z,0.00
2022-10-05T03:32:23.425Z,0.00
2022-10-05T03:33:23.664Z,0.00
2022-10-05T03:34:23.905Z,0.00
2022-10-05T03:35:24.143Z,0.00
2022-10-05T03:36:24.396Z,0.00
2022-10-05T03:37:24.633Z,0.00
2022-10-05T03:38:24.873Z,0.00
2022-10-05T03:39:25.107Z,0.00
2022-10-05T03:40:25.359Z,0.00
2022-10-05T03:41:26.126Z,0.00
2022-10-05T03:42:25.917Z,0.00
2022-10-05T03:43:26.155Z,0.00
2022-10-05T03:44:26.388Z,0.00
2022-10-05T03:45:26.628Z,0.00
2022-10-05T03:46:27.796Z,0.00
2022-10-05T03:47:27.161Z,0.00
2022-10-05T03:48:27.400Z,0.00
2022-10-05T03:49:27.639Z,0.00
2022-10-05T03:50:27.880Z,0.00
2022-10-05T03:51:28.130Z,0.00
2022-10-05T03:52:28.379Z,0.00
2022-10-05T03:53:28.611Z,0.00
2022-10-05T03:54:28.851Z,0.00
2022-10-05T03:55:29.092Z,0.00
2022-10-05T03:56:30.143Z,0.00
2022-10-05T03:57:29.562Z,0.00
2022-10-05T03:58:29.801Z,0.00
2022-10-05T03:59:32.565Z,0.00
2022-10-05T04:00:30.353Z,0.00
2022-10-05T04:01:32.238Z,0.00
2022-10-05T04:02:30.941Z,0.00
2022-10-05T04:03:31.043Z,0.00
2022-10-05T04:04:31.332Z,0.00
2022-10-05T04:05:31.564Z,0.00
2022-10-05T04:06:31.806Z,0.00
2022-10-05T04:07:32.044Z,0.00
2022-10-05T04:08:32.292Z,0.00
2022-10-05T04:09:32.525Z,0.00
2022-10-05T04:10:32.774Z,0.00
2022-10-05T04:11:33.014Z,0.00
2022-10-05T04:12:33.294Z,0.00
2022-10-05T04:13:33.527Z,0.00
2022-10-05T04:14:33.767Z,0.00
2022-10-05T04:15:34.057Z,0.00
2022-10-05T04:16:34.288Z,0.00
2022-10-05T04:17:34.527Z,0.00
2022-10-05T04:18:34.769Z,0.00
2022-10-05T04:19:35.009Z,0.00
2022-10-05T04:20:35.248Z,0.00
2022-10-05T04:21:35.480Z,0.00
2022-10-05T04:22:35.732Z,0.00
2022-10-05T04:23:35.960Z,0.00
2022-10-05T04:24:36.200Z,0.00
2022-10-05T04:25:36.430Z,0.00
2022-10-05T04:26:36.671Z,0.00
2022-10-05T04:27:36.911Z,0.00
2022-10-05T04:28:37.223Z,0.00
2022-10-05T04:29:37.460Z,0.00
2022-10-05T04:30:37.692Z,0.00
2022-10-05T04:31:37.996Z,0.00
2022-10-05T04:32:38.244Z,0.00
2022-10-05T04:33:38.483Z,0.00
2022-10-05T04:34:38.725Z,0.00
2022-10-05T04:35:38.964Z,0.00
2022-10-05T04:36:39.201Z,4.00
2022-10-05T04:37:42.198Z,0.00
2022-10-05T04:38:40.784Z,0.00
2022-10-05T04:39:40.087Z,0.00
2022-10-05T04:40:40.326Z,0.00
2022-10-05T04:41:40.555Z,0.00
2022-10-05T04:42:40.819Z,0.00
2022-10-05T04:43:41.056Z,0.00
2022-10-05T04:44:41.295Z,0.00
2022-10-05T04:45:41.526Z,0.00
2022-10-05T04:46:41.837Z,0.00
2022-10-05T04:47:42.078Z,0.00
2022-10-05T04:48:42.320Z,0.00
2022-10-05T04:49:42.557Z,0.00
2022-10-05T04:50:42.798Z,0.00
2022-10-05T04:51:44.207Z,0.00
2022-10-05T04:52:44.238Z,0.00
2022-10-05T04:53:43.539Z,0.00
2022-10-05T04:54:43.794Z,0.00
2022-10-05T04:55:44.020Z,0.00
2022-10-05T04:56:44.750Z,0.00
2022-10-05T04:57:44.497Z,0.00
2022-10-05T04:58:44.740Z,0.00
2022-10-05T04:59:44.971Z,0.00
2022-10-05T05:00:45.274Z,16.00
2022-10-05T05:01:45.501Z,16.00
2022-10-05T05:02:45.761Z,16.00
2022-10-05T05:03:46.089Z,16.00
2022-10-05T05:04:51.513Z,16.00
2022-10-05T05:06:12.173Z,16.00
2022-10-05T05:06:48.169Z,16.00
2022-10-05T05:07:47.083Z,16.00
2022-10-05T05:08:47.342Z,16.00
2022-10-05T05:09:47.594Z,16.00
2022-10-05T05:10:47.844Z,16.00
2022-10-05T05:11:48.104Z,16.00
2022-10-05T05:12:48.395Z,16.00
2022-10-05T05:13:48.644Z,16.00
2022-10-05T05:14:48.895Z,16.00
2022-10-05T05:15:49.202Z,12.00
2022-10-05T05:16:49.686Z,12.00
2022-10-05T05:17:49.716Z,12.00
2022-10-05T05:18:49.972Z,16.00
2022-10-05T05:19:50.217Z,16.00
2022-10-05T05:20:50.477Z,16.00
2022-10-05T05:21:50.730Z,16.00
2022-10-05T05:22:50.986Z,16.00
2022-10-05T05:23:51.239Z,16.00
2022-10-05T05:24:51.488Z,16.00
2022-10-05T05:25:51.747Z,16.00
2022-10-05T05:26:52.212Z,16.00
2022-10-05T05:27:52.434Z,20.00
2022-10-05T05:28:52.530Z,20.00
2022-10-05T05:29:52.780Z,20.00
2022-10-05T05:30:53.117Z,20.00
2022-10-05T05:31:53.332Z,16.00
2022-10-05T05:32:53.581Z,16.00
2022-10-05T05:33:53.852Z,16.00
2022-10-05T05:34:54.114Z,16.00
2022-10-05T05:35:54.412Z,20.00
2022-10-05T05:36:54.673Z,20.00
2022-10-05T05:37:54.923Z,20.00
2022-10-05T05:38:55.178Z,20.00
2022-10-05T05:39:55.423Z,20.00
2022-10-05T05:40:55.676Z,20.00
2022-10-05T05:41:55.934Z,20.00
2022-10-05T05:42:56.231Z,20.00
2022-10-05T05:43:56.489Z,20.00
2022-10-05T05:44:56.734Z,20.00
2022-10-05T05:45:56.987Z,20.00
2022-10-05T05:47:05.403Z,24.00
2022-10-05T05:47:58.563Z,24.00
2022-10-05T05:48:57.754Z,24.00
2022-10-05T05:50:00.828Z,28.00
2022-10-05T05:50:59.266Z,24.00
2022-10-05T05:51:58.577Z,24.00
2022-10-05T05:52:58.835Z,28.00
2022-10-05T05:53:59.077Z,28.00
2022-10-05T05:54:59.358Z,28.00
2022-10-05T05:55:59.609Z,32.00
2022-10-05T05:56:59.867Z,28.00
2022-10-05T05:58:00.119Z,32.00
2022-10-05T05:59:00.370Z,36.00
2022-10-05T06:00:00.629Z,36.00
2022-10-05T06:01:00.899Z,52.00
2022-10-05T06:02:01.226Z,68.00
2022-10-05T06:03:01.591Z,80.00
2022-10-05T06:04:01.741Z,188.00
2022-10-05T06:05:02.038Z,364.00
2022-10-05T06:06:02.301Z,564.00
2022-10-05T06:07:02.571Z,484.00
2022-10-05T06:08:02.842Z,296.00
2022-10-05T06:09:03.133Z,356.00
2022-10-05T06:10:03.381Z,664.00
2022-10-05T06:11:03.652Z,1484.00
2022-10-05T06:12:03.944Z,2036.00
2022-10-05T06:13:04.233Z,1232.00
2022-10-05T06:14:04.528Z,480.00
2022-10-05T06:15:04.794Z,408.00
2022-10-05T06:16:05.143Z,380.00
2022-10-05T06:17:06.174Z,348.00
2022-10-05T06:18:05.665Z,284.00
2022-10-05T06:19:05.943Z,228.00
2022-10-05T06:20:06.216Z,212.00
2022-10-05T06:21:06.485Z,216.00
2022-10-05T06:22:06.760Z,224.00
2022-10-05T06:23:07.685Z,228.00
2022-10-05T06:24:07.367Z,228.00
2022-10-05T06:25:07.637Z,212.00
2022-10-05T06:26:10.730Z,192.00
2022-10-05T06:27:08.230Z,184.00
2022-10-05T06:28:08.548Z,180.00
2022-10-05T06:29:08.858Z,176.00
2022-10-05T06:30:09.128Z,176.00
2022-10-05T06:31:09.510Z,172.00
2022-10-05T06:32:09.687Z,172.00
2022-10-05T06:33:09.950Z,176.00
2022-10-05T06:34:10.219Z,176.00
2022-10-05T06:35:10.490Z,180.00
2022-10-05T06:36:10.760Z,184.00
2022-10-05T06:37:11.040Z,192.00
2022-10-05T06:38:11.320Z,208.00
2022-10-05T06:39:11.590Z,220.00
2022-10-05T06:40:11.862Z,228.00
2022-10-05T06:41:12.132Z,232.00
2022-10-05T06:42:12.412Z,232.00
2022-10-05T06:43:12.693Z,232.00
2022-10-05T06:44:12.969Z,224.00
2022-10-05T06:45:13.235Z,192.00
2022-10-05T06:46:13.571Z,176.00
2022-10-05T06:47:13.841Z,172.00
2022-10-05T06:48:14.114Z,172.00
2022-10-05T06:49:14.374Z,156.00
2022-10-05T06:50:14.645Z,180.00
2022-10-05T06:51:14.945Z,224.00
2022-10-05T06:52:15.253Z,196.00
2022-10-05T06:53:15.545Z,200.00
2022-10-05T06:54:15.841Z,192.00
2022-10-05T06:55:16.196Z,188.00
2022-10-05T06:56:16.443Z,224.00
2022-10-05T06:57:16.715Z,224.00
2022-10-05T06:58:17.058Z,212.00
2022-10-05T06:59:17.339Z,224.00
2022-10-05T07:00:17.616Z,192.00
2022-10-05T07:01:17.920Z,172.00
2022-10-05T07:02:18.272Z,160.00
2022-10-05T07:03:18.489Z,148.00
2022-10-05T07:04:18.759Z,116.00
2022-10-05T07:05:19.022Z,112.00
2022-10-05T07:06:19.287Z,92.00
2022-10-05T07:07:19.539Z,72.00
2022-10-05T07:08:19.790Z,72.00
2022-10-05T07:09:20.049Z,72.00
2022-10-05T07:10:20.300Z,64.00
2022-10-05T07:11:20.551Z,80.00
2022-10-05T07:12:20.812Z,96.00
2022-10-05T07:13:21.062Z,104.00
2022-10-05T07:14:21.341Z,104.00
2022-10-05T07:15:21.609Z,112.00
2022-10-05T07:16:21.932Z,116.00
2022-10-05T07:17:22.184Z,116.00
2022-10-05T07:18:22.470Z,96.00
2022-10-05T07:19:22.772Z,64.00
2022-10-05T07:20:23.043Z,84.00
2022-10-05T07:21:23.294Z,104.00
2022-10-05T07:22:23.584Z,108.00
2022-10-05T07:23:23.844Z,100.00
2022-10-05T07:24:24.102Z,100.00
2022-10-05T07:25:24.356Z,104.00
2022-10-05T07:26:24.623Z,96.00
2022-10-05T07:27:24.876Z,104.00
2022-10-05T07:28:25.175Z,96.00
2022-10-05T07:29:25.426Z,92.00
2022-10-05T07:30:25.685Z,72.00
2022-10-05T07:31:25.962Z,80.00
2022-10-05T07:32:26.226Z,80.00
2022-10-05T07:33:26.478Z,88.00
2022-10-05T07:34:26.758Z,96.00
2022-10-05T07:35:27.009Z,100.00
2022-10-05T07:36:27.277Z,84.00
2022-10-05T07:37:27.529Z,76.00
2022-10-05T07:38:27.793Z,76.00
2022-10-05T07:39:42.030Z,68.00
2022-10-05T07:40:29.271Z,60.00
2022-10-05T07:41:28.612Z,72.00
2022-10-05T07:42:28.881Z,80.00
2022-10-05T07:43:35.929Z,88.00
2022-10-05T07:44:30.361Z,76.00
2022-10-05T07:45:29.793Z,80.00
2022-10-05T07:46:29.912Z,92.00
2022-10-05T07:47:30.162Z,80.00
2022-10-05T07:48:30.423Z,60.00
2022-10-05T07:49:30.933Z,64.00
2022-10-05T07:50:30.983Z,92.00
2022-10-05T07:51:31.263Z,84.00
2022-10-05T07:52:34.627Z,80.00
2022-10-05T07:53:31.763Z,80.00
2022-10-05T07:54:32.022Z,80.00
2022-10-05T07:55:32.276Z,80.00
2022-10-05T07:56:32.525Z,76.00
2022-10-05T07:57:32.845Z,76.00
2022-10-05T07:58:33.096Z,96.00
2022-10-05T07:59:33.358Z,104.00
2022-10-05T08:00:33.625Z,96.00
2022-10-05T08:01:33.936Z,84.00
2022-10-05T08:02:34.266Z,76.00
2022-10-05T08:03:34.469Z,80.00
2022-10-05T08:04:39.393Z,88.00
2022-10-05T08:05:35.978Z,88.00
2022-10-05T08:06:35.316Z,92.00
2022-10-05T08:07:35.583Z,96.00
2022-10-05T08:08:35.858Z,80.00
2022-10-05T08:09:36.110Z,88.00
2022-10-05T08:10:36.377Z,92.00
2022-10-05T08:11:36.631Z,80.00
2022-10-05T08:12:36.961Z,76.00
2022-10-05T08:13:37.180Z,76.00
2022-10-05T08:14:37.430Z,80.00
2022-10-05T08:15:37.721Z,80.00
2022-10-05T08:16:37.960Z,76.00
2022-10-05T08:17:38.212Z,76.00
2022-10-05T08:18:38.480Z,76.00
2022-10-05T08:19:38.714Z,84.00
2022-10-05T08:20:38.972Z,76.00
2022-10-05T08:21:39.223Z,76.00
2022-10-05T08:22:39.485Z,84.00
2022-10-05T08:23:39.733Z,92.00
2022-10-05T08:24:40.002Z,88.00
2022-10-05T08:25:40.279Z,96.00
2022-10-05T08:26:40.516Z,116.00
2022-10-05T08:27:40.794Z,136.00
2022-10-05T08:28:41.139Z,220.00
2022-10-05T08:29:41.396Z,284.00
2022-10-05T08:30:41.677Z,452.00
2022-10-05T08:31:41.948Z,760.00
2022-10-05T08:32:42.215Z,1152.00
2022-10-05T08:33:42.496Z,1172.00
2022-10-05T08:34:42.776Z,560.00
2022-10-05T08:35:43.045Z,352.00
2022-10-05T08:36:43.317Z,372.00
2022-10-05T08:37:43.589Z,352.00
2022-10-05T08:38:43.864Z,388.00
2022-10-05T08:39:44.190Z,404.00
2022-10-05T08:40:44.458Z,464.00
2022-10-05T08:41:45.069Z,528.00
2022-10-05T08:42:45.019Z,864.00
2022-10-05T08:43:45.289Z,820.00
2022-10-05T08:44:45.569Z,528.00
2022-10-05T08:45:45.918Z,340.00
2022-10-05T08:46:46.170Z,424.00
2022-10-05T08:47:46.538Z,680.00
2022-10-05T08:48:46.761Z,660.00
2022-10-05T08:49:47.040Z,500.00
2022-10-05T08:50:47.309Z,460.00
2022-10-05T08:51:47.929Z,476.00
2022-10-05T08:52:47.833Z,480.00
2022-10-05T08:53:48.102Z,540.00
2022-10-05T08:54:48.372Z,648.00
2022-10-05T08:55:48.633Z,376.00
2022-10-05T08:56:48.903Z,520.00
2022-10-05T08:57:49.234Z,1136.00
2022-10-05T08:58:49.521Z,1060.00
2022-10-05T08:59:49.784Z,496.00
2022-10-05T09:00:50.062Z,732.00
2022-10-05T09:01:50.678Z,704.00
2022-10-05T09:02:50.680Z,392.00
2022-10-05T09:03:50.935Z,412.00
2022-10-05T09:04:51.206Z,448.00
2022-10-05T09:05:51.495Z,408.00
2022-10-05T09:06:51.766Z,536.00
2022-10-05T09:07:52.097Z,952.00
2022-10-05T09:08:52.357Z,592.00
2022-10-05T09:09:52.629Z,240.00
2022-10-05T09:10:52.908Z,232.00
2022-10-05T09:11:53.179Z,212.00
2022-10-05T09:12:53.448Z,204.00
2022-10-05T09:13:53.721Z,208.00
2022-10-05T09:15:20.555Z,208.00
2022-10-05T09:15:55.275Z,200.00
2022-10-05T09:16:54.469Z,168.00
2022-10-05T09:17:54.750Z,156.00
2022-10-05T09:18:55.019Z,140.00
2022-10-05T09:19:55.300Z,148.00
2022-10-05T09:20:55.571Z,168.00
2022-10-05T09:21:55.831Z,184.00
2022-10-05T09:22:56.142Z,188.00
2022-10-05T09:23:56.403Z,180.00
2022-10-05T09:24:56.682Z,188.00
2022-10-05T09:25:56.973Z,180.00
2022-10-05T09:26:57.242Z,176.00
2022-10-05T09:27:57.572Z,180.00
2022-10-05T09:28:57.822Z,144.00
2022-10-05T09:29:58.084Z,116.00
2022-10-05T09:30:58.371Z,120.00
2022-10-05T09:31:58.673Z,136.00
2022-10-05T09:32:58.943Z,164.00
2022-10-05T09:33:59.264Z,168.00
2022-10-05T09:34:59.538Z,160.00
2022-10-05T09:35:59.815Z,152.00
2022-10-05T09:37:00.093Z,160.00
2022-10-05T09:38:00.355Z,156.00
2022-10-05T09:39:00.636Z,160.00
2022-10-05T09:40:01.630Z,152.00
2022-10-05T09:41:01.207Z,144.00
2022-10-05T09:42:01.476Z,144.00
2022-10-05T09:43:01.746Z,144.00
2022-10-05T09:44:02.957Z,132.00
2022-10-05T09:45:02.288Z,128.00
2022-10-05T09:46:02.581Z,128.00
2022-10-05T09:47:02.841Z,124.00
2022-10-05T09:48:03.109Z,120.00
2022-10-05T09:49:03.399Z,120.00
2022-10-05T09:50:03.659Z,116.00
2022-10-05T09:51:03.934Z,108.00
2022-10-05T09:52:04.202Z,108.00
2022-10-05T09:53:04.460Z,92.00
2022-10-05T09:54:04.731Z,88.00
2022-10-05T09:55:04.991Z,96.00
2022-10-05T09:56:05.249Z,100.00
2022-10-05T09:57:05.506Z,100.00
2022-10-05T09:58:05.780Z,104.00
2022-10-05T09:59:06.040Z,88.00
2022-10-05T10:01:09.640Z,80.00
2022-10-05T10:02:07.909Z,80.00
2022-10-05T10:03:07.241Z,76.00
2022-10-05T10:04:07.384Z,72.00
2022-10-05T10:05:07.670Z,76.00
2022-10-05T10:06:07.919Z,76.00
2022-10-05T10:07:08.273Z,76.00
2022-10-05T10:08:08.395Z,76.00
2022-10-05T10:09:08.664Z,72.00
2022-10-05T10:10:08.952Z,68.00
2022-10-05T10:11:09.195Z,64.00
2022-10-05T10:12:09.463Z,60.00
2022-10-05T10:13:09.708Z,64.00
2022-10-05T10:14:09.968Z,60.00
2022-10-05T10:15:10.221Z,64.00
2022-10-05T10:16:10.556Z,60.00
2022-10-05T10:17:10.808Z,60.00
2022-10-05T10:18:11.070Z,56.00
2022-10-05T10:19:11.322Z,56.00
2022-10-05T10:20:11.569Z,56.00
2022-10-05T10:21:11.837Z,52.00
2022-10-05T10:22:12.079Z,52.00
2022-10-05T10:23:12.339Z,52.00
2022-10-05T10:24:12.599Z,48.00
2022-10-05T10:25:12.860Z,48.00
2022-10-05T10:26:13.129Z,48.00
2022-10-05T10:27:13.379Z,48.00
2022-10-05T10:28:13.738Z,44.00
2022-10-05T10:29:13.991Z,40.00
2022-10-05T10:30:14.234Z,44.00
2022-10-05T10:31:14.607Z,44.00
2022-10-05T10:32:14.745Z,48.00
2022-10-05T10:33:15.003Z,44.00
2022-10-05T10:34:15.253Z,44.00
2022-10-05T10:35:15.554Z,44.00
2022-10-05T10:36:15.823Z,44.00
2022-10-05T10:37:16.085Z,48.00
2022-10-05T10:38:16.334Z,48.00
2022-10-05T10:39:16.597Z,48.00
2022-10-05T10:40:16.851Z,48.00
2022-10-05T10:41:17.139Z,44.00
2022-10-05T10:42:17.388Z,44.00
2022-10-05T10:43:17.656Z,44.00
2022-10-05T10:44:17.943Z,44.00
2022-10-05T10:45:18.206Z,44.00
2022-10-05T10:46:18.533Z,44.00
2022-10-05T10:47:18.776Z,40.00
2022-10-05T10:48:19.042Z,44.00
2022-10-05T10:49:19.289Z,44.00
2022-10-05T10:50:19.547Z,44.00
2022-10-05T10:51:19.801Z,44.00
2022-10-05T10:52:20.050Z,44.00
2022-10-05T10:53:20.308Z,40.00
2022-10-05T10:54:20.560Z,40.00
2022-10-05T10:55:20.819Z,40.00
2022-10-05T10:56:21.070Z,40.00
2022-10-05T10:57:21.330Z,40.00
2022-10-05T10:58:21.634Z,40.00
2022-10-05T10:59:21.893Z,40.00
2022-10-05T11:00:22.162Z,40.00
2022-10-05T11:01:22.448Z,40.00
2022-10-05T11:02:22.772Z,40.00
2022-10-05T11:03:23.062Z,40.00
2022-10-05T11:04:23.323Z,40.00
2022-10-05T11:05:23.572Z,40.00
2022-10-05T11:06:23.836Z,40.00
2022-10-05T11:07:24.090Z,40.00
2022-10-05T11:08:24.344Z,44.00
2022-10-05T11:09:24.593Z,44.00
2022-10-05T11:10:24.855Z,44.00
2022-10-05T11:11:25.104Z,40.00
2022-10-05T11:12:25.374Z,44.00
2022-10-05T11:13:25.625Z,44.00
2022-10-05T11:14:25.876Z,40.00
2022-10-05T11:15:26.142Z,40.00
2022-10-05T11:16:26.414Z,44.00
2022-10-05T11:17:26.666Z,40.00
2022-10-05T11:18:26.938Z,40.00
2022-10-05T11:19:35.179Z,40.00
2022-10-05T11:20:28.436Z,40.00
2022-10-05T11:21:27.746Z,40.00
2022-10-05T11:22:28.028Z,40.00
2022-10-05T11:23:28.257Z,40.00
2022-10-05T11:24:28.507Z,40.00
2022-10-05T11:25:28.758Z,40.00
2022-10-05T11:26:29.017Z,40.00
2022-10-05T11:27:29.278Z,40.00
2022-10-05T11:28:29.588Z,44.00
2022-10-05T11:29:29.772Z,44.00
2022-10-05T11:30:30.036Z,44.00
2022-10-05T11:31:30.346Z,40.00
2022-10-05T11:32:30.571Z,44.00
2022-10-05T11:33:30.830Z,44.00
2022-10-05T11:34:31.082Z,40.00
2022-10-05T11:35:31.331Z,44.00
2022-10-05T11:36:31.594Z,40.00
2022-10-05T11:37:31.846Z,44.00
2022-10-05T11:38:32.133Z,40.00
2022-10-05T11:39:32.433Z,40.00
2022-10-05T11:40:32.703Z,40.00
2022-10-05T11:41:32.953Z,40.00
2022-10-05T11:42:33.203Z,36.00
2022-10-05T11:43:33.463Z,36.00
2022-10-05T11:44:33.725Z,40.00
2022-10-05T11:45:33.974Z,36.00
2022-10-05T11:46:34.252Z,40.00
2022-10-05T11:47:34.517Z,40.00
2022-10-05T11:48:34.776Z,40.00
2022-10-05T11:49:35.025Z,40.00
2022-10-05T11:50:35.286Z,40.00
2022-10-05T11:51:35.543Z,36.00
2022-10-05T11:52:35.798Z,40.00
2022-10-05T11:53:36.056Z,40.00
2022-10-05T11:54:58.526Z,40.00
2022-10-05T11:55:37.596Z,40.00
2022-10-05T11:56:36.789Z,40.00
2022-10-05T11:57:37.039Z,40.00
2022-10-05T11:58:37.339Z,36.00
2022-10-05T11:59:37.629Z,36.00
2022-10-05T12:00:37.897Z,36.00
2022-10-05T12:01:38.146Z,40.00
2022-10-05T12:02:40.033Z,36.00
2022-10-05T12:03:39.725Z,36.00
2022-10-05T12:04:38.980Z,36.00
2022-10-05T12:05:39.240Z,36.00
2022-10-05T12:06:39.498Z,36.00
2022-10-05T12:07:39.752Z,36.00
2022-10-05T12:08:40.009Z,36.00
2022-10-05T12:09:40.261Z,40.00
2022-10-05T12:10:40.511Z,40.00
2022-10-05T12:11:40.801Z,40.00
2022-10-05T12:12:41.063Z,40.00
2022-10-05T12:13:41.354Z,40.00
2022-10-05T12:14:41.611Z,36.00
2022-10-05T12:15:41.882Z,36.00
2022-10-05T12:16:43.106Z,36.00
2022-10-05T12:17:42.432Z,36.00
2022-10-05T12:18:42.713Z,36.00
2022-10-05T12:19:42.965Z,36.00
2022-10-05T12:20:43.217Z,36.00
2022-10-05T12:21:43.466Z,36.00
2022-10-05T12:22:43.716Z,36.00
2022-10-05T12:23:43.975Z,36.00
2022-10-05T12:24:44.226Z,36.00
2022-10-05T12:25:44.485Z,36.00
2022-10-05T12:26:44.737Z,36.00
2022-10-05T12:27:44.987Z,36.00
2022-10-05T12:28:45.247Z,36.00
2022-10-05T12:29:45.497Z,36.00
2022-10-05T12:30:45.758Z,36.00
2022-10-05T12:31:46.066Z,36.00
2022-10-05T12:32:46.330Z,36.00
2022-10-05T12:33:46.609Z,36.00
2022-10-05T12:34:46.859Z,36.00
2022-10-05T12:35:48.777Z,36.00
2022-10-05T12:37:03.473Z,36.00
2022-10-05T12:37:48.651Z,36.00
2022-10-05T12:38:47.971Z,36.00
2022-10-05T12:39:48.231Z,32.00
2022-10-05T12:40:48.501Z,32.00
2022-10-05T12:41:48.753Z,32.00
2022-10-05T12:42:49.002Z,32.00
2022-10-05T12:43:49.262Z,32.00
2022-10-05T12:44:49.512Z,32.00
2022-10-05T12:45:49.795Z,32.00
2022-10-05T12:46:50.066Z,32.00
2022-10-05T12:47:53.646Z,28.00
2022-10-05T12:48:50.683Z,32.00
2022-10-05T12:49:50.884Z,32.00
2022-10-05T12:50:51.094Z,32.00
2022-10-05T12:51:51.354Z,28.00
2022-10-05T12:52:51.624Z,28.00
2022-10-05T12:53:51.915Z,28.00
2022-10-05T12:54:52.166Z,32.00
2022-10-05T12:55:52.424Z,32.00
2022-10-05T12:56:52.675Z,32.00
2022-10-05T12:57:52.925Z,28.00
2022-10-05T12:58:53.186Z,28.00
2022-10-05T12:59:53.436Z,28.00
2022-10-05T13:00:53.730Z,28.00